sensor_id;sensor_type;location;lat;lon;timestamp;temperature;humidity
28438;DHT22;15667;52.376;9.708;2022-09-01T00:01:16;16.20;99.90
28438;DHT22;15667;52.376;9.708;2022-09-01T00:03:46;17.60;99.90
28438;DHT22;15667;52.376;9.708;2022-09-01T00:06:14;14.00;99.90
28438;DHT22;15667;52.376;9.708;2022-09-01T00:08:50;16.20;99.90
28438;DHT22;15667;52.376;9.708;2022-09-01T00:11:16;16.20;99.90
28438;DHT22;15667;52.376;9.708;2022-09-01T00:13:42;16.00;99.90
28438;DHT22;15667;52.376;9.708;2022-09-01T00:16:09;16.10;99.90
28438;DHT22;15667;52.376;9.708;2022-09-01T00:18:40;16.00;99.90
28438;DHT22;15667;52.376;9.708;2022-09-01T00:21:09;16.70;99.90
28438;DHT22;15667;52.376;9.708;2022-09-01T00:23:35;16.00;99.90
28438;DHT22;15667;52.376;9.708;2022-09-01T00:26:02;16.00;99.90
28438;DHT22;15667;52.376;9.708;2022-09-01T00:28:28;16.00;99.90
28438;DHT22;15667;52.376;9.708;2022-09-01T00:30:54;16.80;99.90
28438;DHT22;15667;52.376;9.708;2022-09-01T00:33:20;14.60;99.90
28438;DHT22;15667;52.376;9.708;2022-09-01T00:35:49;15.80;99.90
28438;DHT22;15667;52.376;9.708;2022-09-01T00:38:15;16.00;99.90
28438;DHT22;15667;52.376;9.708;2022-09-01T00:40:40;16.80;99.90
28438;DHT22;15667;52.376;9.708;2022-09-01T00:43:12;15.80;99.90
28438;DHT22;15667;52.376;9.708;2022-09-01T00:45:39;15.80;99.90
28438;DHT22;15667;52.376;9.708;2022-09-01T00:48:06;15.70;99.90
28438;DHT22;15667;52.376;9.708;2022-09-01T00:50:32;15.70;99.90
28438;DHT22;15667;52.376;9.708;2022-09-01T00:52:58;15.80;99.90
28438;DHT22;15667;52.376;9.708;2022-09-01T00:55:29;15.70;99.90
28438;DHT22;15667;52.376;9.708;2022-09-01T00:57:56;15.70;99.90
28438;DHT22;15667;52.376;9.708;2022-09-01T01:00:25;15.70;99.90
28438;DHT22;15667;52.376;9.708;2022-09-01T01:02:52;15.60;99.90
28438;DHT22;15667;52.376;9.708;2022-09-01T01:05:21;15.50;99.90
28438;DHT22;15667;52.376;9.708;2022-09-01T01:07:50;15.40;99.90
28438;DHT22;15667;52.376;9.708;2022-09-01T01:10:17;16.00;99.90
28438;DHT22;15667;52.376;9.708;2022-09-01T01:12:45;15.60;99.90
28438;DHT22;15667;52.376;9.708;2022-09-01T01:15:12;15.30;99.90
28438;DHT22;15667;52.376;9.708;2022-09-01T01:17:39;15.40;99.90
28438;DHT22;15667;52.376;9.708;2022-09-01T01:20:06;16.00;99.90
28438;DHT22;15667;52.376;9.708;2022-09-01T01:23:29;15.50;99.90
28438;DHT22;15667;52.376;9.708;2022-09-01T01:26:03;15.50;99.90
28438;DHT22;15667;52.376;9.708;2022-09-01T01:28:34;15.50;99.90
28438;DHT22;15667;52.376;9.708;2022-09-01T01:31:04;15.40;99.90
28438;DHT22;15667;52.376;9.708;2022-09-01T01:33:34;16.00;99.90
28438;DHT22;15667;52.376;9.708;2022-09-01T01:36:05;15.70;99.90
28438;DHT22;15667;52.376;9.708;2022-09-01T01:38:32;15.40;99.90
28438;DHT22;15667;52.376;9.708;2022-09-01T01:41:01;15.60;99.90
28438;DHT22;15667;52.376;9.708;2022-09-01T01:43:28;15.40;99.90
28438;DHT22;15667;52.376;9.708;2022-09-01T01:45:56;15.50;99.90
28438;DHT22;15667;52.376;9.708;2022-09-01T01:48:29;15.40;99.90
28438;DHT22;15667;52.376;9.708;2022-09-01T01:50:59;16.30;99.90
28438;DHT22;15667;52.376;9.708;2022-09-01T01:53:26;15.50;99.90
28438;DHT22;15667;52.376;9.708;2022-09-01T01:55:53;15.50;99.90
28438;DHT22;15667;52.376;9.708;2022-09-01T01:58:20;16.50;99.90
28438;DHT22;15667;52.376;9.708;2022-09-01T02:00:48;15.60;99.90
28438;DHT22;15667;52.376;9.708;2022-09-01T02:03:19;15.50;99.90
28438;DHT22;15667;52.376;9.708;2022-09-01T02:05:52;15.60;99.90
28438;DHT22;15667;52.376;9.708;2022-09-01T02:08:19;15.30;99.90
28438;DHT22;15667;52.376;9.708;2022-09-01T02:10:49;15.60;99.90
28438;DHT22;15667;52.376;9.708;2022-09-01T02:13:18;15.30;99.90
28438;DHT22;15667;52.376;9.708;2022-09-01T02:15:49;15.60;99.90
28438;DHT22;15667;52.376;9.708;2022-09-01T02:18:27;15.40;99.90
28438;DHT22;15667;52.376;9.708;2022-09-01T02:20:55;15.20;99.90
28438;DHT22;15667;52.376;9.708;2022-09-01T02:23:23;15.20;99.90
28438;DHT22;15667;52.376;9.708;2022-09-01T02:25:52;15.10;99.90
28438;DHT22;15667;52.376;9.708;2022-09-01T02:28:20;15.10;99.90
28438;DHT22;15667;52.376;9.708;2022-09-01T02:30:51;15.30;99.90
28438;DHT22;15667;52.376;9.708;2022-09-01T02:33:22;14.90;99.90
28438;DHT22;15667;52.376;9.708;2022-09-01T02:35:51;14.60;99.90
28438;DHT22;15667;52.376;9.708;2022-09-01T02:38:18;15.40;99.90
28438;DHT22;15667;52.376;9.708;2022-09-01T02:40:46;15.30;99.90
28438;DHT22;15667;52.376;9.708;2022-09-01T02:43:14;14.80;99.90
28438;DHT22;15667;52.376;9.708;2022-09-01T02:45:43;15.40;99.90
28438;DHT22;15667;52.376;9.708;2022-09-01T02:48:12;15.20;99.90
28438;DHT22;15667;52.376;9.708;2022-09-01T02:50:39;13.40;99.90
28438;DHT22;15667;52.376;9.708;2022-09-01T02:53:07;13.30;99.90
28438;DHT22;15667;52.376;9.708;2022-09-01T02:55:41;14.50;99.90
28438;DHT22;15667;52.376;9.708;2022-09-01T02:58:07;15.30;99.90
28438;DHT22;15667;52.376;9.708;2022-09-01T03:00:39;15.50;99.90
28438;DHT22;15667;52.376;9.708;2022-09-01T03:03:06;14.40;99.90
28438;DHT22;15667;52.376;9.708;2022-09-01T03:05:32;14.40;99.90
28438;DHT22;15667;52.376;9.708;2022-09-01T03:08:01;15.10;99.90
28438;DHT22;15667;52.376;9.708;2022-09-01T03:10:34;12.70;99.90
28438;DHT22;15667;52.376;9.708;2022-09-01T03:13:03;14.60;99.90
28438;DHT22;15667;52.376;9.708;2022-09-01T03:15:31;15.60;99.90
28438;DHT22;15667;52.376;9.708;2022-09-01T03:17:58;15.20;99.90
28438;DHT22;15667;52.376;9.708;2022-09-01T03:20:26;15.00;99.90
28438;DHT22;15667;52.376;9.708;2022-09-01T03:22:52;15.60;99.90
28438;DHT22;15667;52.376;9.708;2022-09-01T03:25:24;14.50;99.90
28438;DHT22;15667;52.376;9.708;2022-09-01T03:27:51;13.70;99.90
28438;DHT22;15667;52.376;9.708;2022-09-01T03:30:17;13.70;99.90
28438;DHT22;15667;52.376;9.708;2022-09-01T03:32:43;12.90;99.90
28438;DHT22;15667;52.376;9.708;2022-09-01T03:35:10;15.70;99.90
28438;DHT22;15667;52.376;9.708;2022-09-01T03:37:36;15.90;99.90
28438;DHT22;15667;52.376;9.708;2022-09-01T03:40:05;16.70;99.90
28438;DHT22;15667;52.376;9.708;2022-09-01T03:42:34;14.40;99.90
28438;DHT22;15667;52.376;9.708;2022-09-01T03:45:00;14.80;99.90
28438;DHT22;15667;52.376;9.708;2022-09-01T03:47:35;16.00;99.90
28438;DHT22;15667;52.376;9.708;2022-09-01T03:50:07;14.20;99.90
28438;DHT22;15667;52.376;9.708;2022-09-01T03:52:36;14.40;99.90
28438;DHT22;15667;52.376;9.708;2022-09-01T03:55:06;14.50;99.90
28438;DHT22;15667;52.376;9.708;2022-09-01T03:57:32;14.40;99.90
28438;DHT22;15667;52.376;9.708;2022-09-01T03:59:58;14.70;99.90
28438;DHT22;15667;52.376;9.708;2022-09-01T04:02:25;14.80;99.90
28438;DHT22;15667;52.376;9.708;2022-09-01T04:04:52;15.10;99.90
28438;DHT22;15667;52.376;9.708;2022-09-01T04:07:18;14.20;99.90
28438;DHT22;15667;52.376;9.708;2022-09-01T04:10:05;15.00;99.90
28438;DHT22;15667;52.376;9.708;2022-09-01T04:12:32;14.30;99.90
28438;DHT22;15667;52.376;9.708;2022-09-01T04:15:02;15.10;99.90
28438;DHT22;15667;52.376;9.708;2022-09-01T04:17:27;15.40;99.90
28438;DHT22;15667;52.376;9.708;2022-09-01T04:20:12;14.80;99.90
28438;DHT22;15667;52.376;9.708;2022-09-01T04:22:39;12.40;99.90
28438;DHT22;15667;52.376;9.708;2022-09-01T04:25:05;14.00;99.90
28438;DHT22;15667;52.376;9.708;2022-09-01T04:27:31;14.00;99.90
28438;DHT22;15667;52.376;9.708;2022-09-01T04:29:58;13.50;99.90
28438;DHT22;15667;52.376;9.708;2022-09-01T04:32:25;13.70;99.90
28438;DHT22;15667;52.376;9.708;2022-09-01T04:34:52;14.00;99.90
28438;DHT22;15667;52.376;9.708;2022-09-01T04:37:26;14.00;99.90
28438;DHT22;15667;52.376;9.708;2022-09-01T04:39:55;14.60;99.90
28438;DHT22;15667;52.376;9.708;2022-09-01T04:42:22;14.60;99.90
28438;DHT22;15667;52.376;9.708;2022-09-01T04:44:49;14.60;99.90
28438;DHT22;15667;52.376;9.708;2022-09-01T04:47:15;14.70;99.90
28438;DHT22;15667;52.376;9.708;2022-09-01T04:49:42;14.10;99.90
28438;DHT22;15667;52.376;9.708;2022-09-01T04:52:10;15.70;99.90
28438;DHT22;15667;52.376;9.708;2022-09-01T04:54:41;14.10;99.90
28438;DHT22;15667;52.376;9.708;2022-09-01T04:57:09;15.20;99.90
28438;DHT22;15667;52.376;9.708;2022-09-01T04:59:34;14.00;99.90
28438;DHT22;15667;52.376;9.708;2022-09-01T05:02:00;15.20;99.90
28438;DHT22;15667;52.376;9.708;2022-09-01T05:04:31;13.90;99.90
28438;DHT22;15667;52.376;9.708;2022-09-01T05:06:58;14.00;99.90
28438;DHT22;15667;52.376;9.708;2022-09-01T05:09:30;14.10;99.90
28438;DHT22;15667;52.376;9.708;2022-09-01T05:11:58;13.90;99.90
28438;DHT22;15667;52.376;9.708;2022-09-01T05:14:36;14.10;99.90
28438;DHT22;15667;52.376;9.708;2022-09-01T05:17:07;14.70;99.90
28438;DHT22;15667;52.376;9.708;2022-09-01T05:19:36;13.60;99.90
28438;DHT22;15667;52.376;9.708;2022-09-01T06:28:32;14.80;99.90
28438;DHT22;15667;52.376;9.708;2022-09-01T06:30:59;14.10;99.90
28438;DHT22;15667;52.376;9.708;2022-09-01T06:33:30;14.90;99.90
28438;DHT22;15667;52.376;9.708;2022-09-01T06:36:00;15.10;99.90
28438;DHT22;15667;52.376;9.708;2022-09-01T06:38:28;13.60;99.90
28438;DHT22;15667;52.376;9.708;2022-09-01T06:41:06;15.80;99.90
28438;DHT22;15667;52.376;9.708;2022-09-01T06:43:35;15.30;99.90
28438;DHT22;15667;52.376;9.708;2022-09-01T06:46:07;15.60;99.90
28438;DHT22;15667;52.376;9.708;2022-09-01T06:48:35;15.50;99.90
28438;DHT22;15667;52.376;9.708;2022-09-01T06:51:06;16.20;99.90
28438;DHT22;15667;52.376;9.708;2022-09-01T06:53:36;15.70;99.90
28438;DHT22;15667;52.376;9.708;2022-09-01T06:56:02;15.80;99.90
28438;DHT22;15667;52.376;9.708;2022-09-01T06:58:28;15.20;99.90
28438;DHT22;15667;52.376;9.708;2022-09-01T07:00:55;14.90;99.90
28438;DHT22;15667;52.376;9.708;2022-09-01T07:03:25;16.80;99.90
28438;DHT22;15667;52.376;9.708;2022-09-01T07:05:50;16.10;99.90
28438;DHT22;15667;52.376;9.708;2022-09-01T07:08:17;16.20;99.90
28438;DHT22;15667;52.376;9.708;2022-09-01T07:10:49;16.00;99.90
28438;DHT22;15667;52.376;9.708;2022-09-01T07:14:06;16.00;99.90
28438;DHT22;15667;52.376;9.708;2022-09-01T07:16:16;16.20;99.90
28438;DHT22;15667;52.376;9.708;2022-09-01T07:18:51;16.40;99.90
28438;DHT22;15667;52.376;9.708;2022-09-01T07:21:21;16.60;99.90
28438;DHT22;15667;52.376;9.708;2022-09-01T07:23:50;16.60;99.90
28438;DHT22;15667;52.376;9.708;2022-09-01T07:26:19;16.80;99.90
28438;DHT22;15667;52.376;9.708;2022-09-01T07:28:54;16.80;99.90
28438;DHT22;15667;52.376;9.708;2022-09-01T07:31:24;17.00;99.90
28438;DHT22;15667;52.376;9.708;2022-09-01T07:33:55;17.40;99.90
28438;DHT22;15667;52.376;9.708;2022-09-01T07:36:29;17.00;99.90
28438;DHT22;15667;52.376;9.708;2022-09-01T07:38:55;17.30;99.90
28438;DHT22;15667;52.376;9.708;2022-09-01T07:41:27;17.40;99.90
28438;DHT22;15667;52.376;9.708;2022-09-01T07:43:54;17.10;99.90
28438;DHT22;15667;52.376;9.708;2022-09-01T07:46:37;17.30;99.90
28438;DHT22;15667;52.376;9.708;2022-09-01T07:49:02;18.80;99.90
28438;DHT22;15667;52.376;9.708;2022-09-01T07:51:29;15.60;99.90
28438;DHT22;15667;52.376;9.708;2022-09-01T07:53:57;17.50;99.90
28438;DHT22;15667;52.376;9.708;2022-09-01T07:56:23;17.30;99.90
28438;DHT22;15667;52.376;9.708;2022-09-01T07:58:50;17.90;99.90
28438;DHT22;15667;52.376;9.708;2022-09-01T08:01:20;17.40;99.90
28438;DHT22;15667;52.376;9.708;2022-09-01T08:03:55;16.20;99.90
28438;DHT22;15667;52.376;9.708;2022-09-01T08:06:23;17.60;99.90
28438;DHT22;15667;52.376;9.708;2022-09-01T08:08:52;17.50;99.90
28438;DHT22;15667;52.376;9.708;2022-09-01T08:11:21;18.10;99.90
28438;DHT22;15667;52.376;9.708;2022-09-01T08:13:50;17.30;99.90
28438;DHT22;15667;52.376;9.708;2022-09-01T08:16:19;17.90;99.90
28438;DHT22;15667;52.376;9.708;2022-09-01T08:18:46;17.90;99.90
28438;DHT22;15667;52.376;9.708;2022-09-01T08:21:12;18.10;99.90
28438;DHT22;15667;52.376;9.708;2022-09-01T08:23:39;18.10;99.90
28438;DHT22;15667;52.376;9.708;2022-09-01T08:26:17;18.70;99.90
28438;DHT22;15667;52.376;9.708;2022-09-01T08:28:43;18.20;99.90
28438;DHT22;15667;52.376;9.708;2022-09-01T08:31:11;18.10;99.90
28438;DHT22;15667;52.376;9.708;2022-09-01T08:33:38;18.40;99.90
28438;DHT22;15667;52.376;9.708;2022-09-01T08:36:07;18.50;99.90
28438;DHT22;15667;52.376;9.708;2022-09-01T08:38:34;18.60;99.90
28438;DHT22;15667;52.376;9.708;2022-09-01T08:41:01;18.60;99.90
28438;DHT22;15667;52.376;9.708;2022-09-01T08:43:37;17.10;99.90
28438;DHT22;15667;52.376;9.708;2022-09-01T08:46:16;18.90;99.90
28438;DHT22;15667;52.376;9.708;2022-09-01T08:48:50;19.00;99.90
28438;DHT22;15667;52.376;9.708;2022-09-01T08:51:48;19.00;99.90
28438;DHT22;15667;52.376;9.708;2022-09-01T08:54:43;19.00;99.90
28438;DHT22;15667;52.376;9.708;2022-09-01T08:59:46;19.50;99.90
28438;DHT22;15667;52.376;9.708;2022-09-01T09:05:26;19.30;99.90
28438;DHT22;15667;52.376;9.708;2022-09-01T09:10:34;19.60;99.90
28438;DHT22;15667;52.376;9.708;2022-09-01T09:15:57;21.50;99.90
28438;DHT22;15667;52.376;9.708;2022-09-01T09:18:44;19.80;99.90
28438;DHT22;15667;52.376;9.708;2022-09-01T09:21:27;19.90;99.90
28438;DHT22;15667;52.376;9.708;2022-09-01T09:24:01;19.90;99.90
28438;DHT22;15667;52.376;9.708;2022-09-01T09:26:30;20.00;99.90
28438;DHT22;15667;52.376;9.708;2022-09-01T09:28:56;20.20;99.90
28438;DHT22;15667;52.376;9.708;2022-09-01T09:31:34;20.10;99.90
28438;DHT22;15667;52.376;9.708;2022-09-01T09:34:01;20.10;99.90
28438;DHT22;15667;52.376;9.708;2022-09-01T09:36:33;20.00;99.90
28438;DHT22;15667;52.376;9.708;2022-09-01T09:39:06;20.00;99.90
28438;DHT22;15667;52.376;9.708;2022-09-01T09:41:32;20.20;99.90
28438;DHT22;15667;52.376;9.708;2022-09-01T09:44:14;20.30;99.90
28438;DHT22;15667;52.376;9.708;2022-09-01T09:46:44;20.40;99.90
28438;DHT22;15667;52.376;9.708;2022-09-01T09:54:28;20.50;99.90
28438;DHT22;15667;52.376;9.708;2022-09-01T09:57:13;20.50;99.90
28438;DHT22;15667;52.376;9.708;2022-09-01T09:59:45;20.60;99.90
28438;DHT22;15667;52.376;9.708;2022-09-01T10:04:50;20.90;99.90
28438;DHT22;15667;52.376;9.708;2022-09-01T10:07:28;20.90;99.90
28438;DHT22;15667;52.376;9.708;2022-09-01T10:09:57;20.90;99.90
28438;DHT22;15667;52.376;9.708;2022-09-01T10:12:25;21.00;99.90
28438;DHT22;15667;52.376;9.708;2022-09-01T10:15:08;21.20;99.90
28438;DHT22;15667;52.376;9.708;2022-09-01T10:17:39;21.20;99.90
28438;DHT22;15667;52.376;9.708;2022-09-01T10:20:15;21.30;99.90
28438;DHT22;15667;52.376;9.708;2022-09-01T10:22:42;21.30;99.90
28438;DHT22;15667;52.376;9.708;2022-09-01T10:25:15;21.20;99.90
28438;DHT22;15667;52.376;9.708;2022-09-01T10:27:45;23.30;99.90
28438;DHT22;15667;52.376;9.708;2022-09-01T10:30:17;21.20;99.90
28438;DHT22;15667;52.376;9.708;2022-09-01T10:32:48;21.40;99.90
28438;DHT22;15667;52.376;9.708;2022-09-01T10:35:25;21.50;99.90
28438;DHT22;15667;52.376;9.708;2022-09-01T10:37:52;21.50;99.90
28438;DHT22;15667;52.376;9.708;2022-09-01T10:45:56;21.60;99.90
28438;DHT22;15667;52.376;9.708;2022-09-01T10:48:31;21.60;99.90
28438;DHT22;15667;52.376;9.708;2022-09-01T11:04:09;21.90;99.90
28438;DHT22;15667;52.376;9.708;2022-09-01T11:09:29;21.70;99.90
28438;DHT22;15667;52.376;9.708;2022-09-01T11:14:57;21.70;99.90
28438;DHT22;15667;52.376;9.708;2022-09-01T11:17:24;22.00;99.90
28438;DHT22;15667;52.376;9.708;2022-09-01T11:22:43;22.10;99.90
28438;DHT22;15667;52.376;9.708;2022-09-01T11:25:31;22.30;99.90
28438;DHT22;15667;52.376;9.708;2022-09-01T11:33:12;22.20;99.40
28438;DHT22;15667;52.376;9.708;2022-09-01T11:35:44;22.20;99.90
28438;DHT22;15667;52.376;9.708;2022-09-01T11:38:14;22.40;99.90
28438;DHT22;15667;52.376;9.708;2022-09-01T11:40:41;22.70;99.90
28438;DHT22;15667;52.376;9.708;2022-09-01T11:43:11;22.80;99.50
28438;DHT22;15667;52.376;9.708;2022-09-01T11:48:19;22.80;98.20
28438;DHT22;15667;52.376;9.708;2022-09-01T11:50:59;22.90;97.80
28438;DHT22;15667;52.376;9.708;2022-09-01T11:53:26;22.70;99.30
28438;DHT22;15667;52.376;9.708;2022-09-01T11:55:54;22.40;99.10
28438;DHT22;15667;52.376;9.708;2022-09-01T12:01:17;22.40;99.50
28438;DHT22;15667;52.376;9.708;2022-09-01T12:03:45;22.20;99.10
28438;DHT22;15667;52.376;9.708;2022-09-01T12:06:24;22.10;99.80
28438;DHT22;15667;52.376;9.708;2022-09-01T12:09:00;22.10;99.90
28438;DHT22;15667;52.376;9.708;2022-09-01T12:11:29;21.90;99.90
28438;DHT22;15667;52.376;9.708;2022-09-01T12:14:01;21.90;99.90
28438;DHT22;15667;52.376;9.708;2022-09-01T12:16:29;22.20;99.90
28438;DHT22;15667;52.376;9.708;2022-09-01T12:18:57;22.40;99.90
28438;DHT22;15667;52.376;9.708;2022-09-01T12:21:31;22.60;99.90
28438;DHT22;15667;52.376;9.708;2022-09-01T12:24:18;22.60;99.90
28438;DHT22;15667;52.376;9.708;2022-09-01T12:26:45;22.40;99.90
28438;DHT22;15667;52.376;9.708;2022-09-01T12:29:13;22.20;99.90
28438;DHT22;15667;52.376;9.708;2022-09-01T12:31:44;22.20;99.90
28438;DHT22;15667;52.376;9.708;2022-09-01T12:37:24;22.10;99.90
28438;DHT22;15667;52.376;9.708;2022-09-01T12:39:53;22.40;99.90
28438;DHT22;15667;52.376;9.708;2022-09-01T12:44:58;22.70;99.90
28438;DHT22;15667;52.376;9.708;2022-09-01T12:52:31;22.90;98.80
28438;DHT22;15667;52.376;9.708;2022-09-01T12:57:36;23.30;99.20
28438;DHT22;15667;52.376;9.708;2022-09-01T13:00:24;23.40;99.00
28438;DHT22;15667;52.376;9.708;2022-09-01T13:08:02;23.60;98.10
28438;DHT22;15667;52.376;9.708;2022-09-01T13:10:36;23.70;97.90
28438;DHT22;15667;52.376;9.708;2022-09-01T13:13:08;23.90;97.80
28438;DHT22;15667;52.376;9.708;2022-09-01T13:15:36;24.00;97.40
28438;DHT22;15667;52.376;9.708;2022-09-01T13:18:02;23.60;97.80
28438;DHT22;15667;52.376;9.708;2022-09-01T13:20:28;23.40;98.00
28438;DHT22;15667;52.376;9.708;2022-09-01T13:22:54;23.30;97.90
28438;DHT22;15667;52.376;9.708;2022-09-01T13:25:22;23.10;98.10
28438;DHT22;15667;52.376;9.708;2022-09-01T13:27:49;23.00;98.50
28438;DHT22;15667;52.376;9.708;2022-09-01T13:30:18;23.30;98.30
28438;DHT22;15667;52.376;9.708;2022-09-01T13:32:45;23.50;97.80
28438;DHT22;15667;52.376;9.708;2022-09-01T13:35:17;23.50;97.80
28438;DHT22;15667;52.376;9.708;2022-09-01T13:37:44;23.40;97.60
28438;DHT22;15667;52.376;9.708;2022-09-01T13:40:10;23.20;98.60
28438;DHT22;15667;52.376;9.708;2022-09-01T13:42:41;22.90;98.60
28438;DHT22;15667;52.376;9.708;2022-09-01T15:53:03;22.40;94.90
28438;DHT22;15667;52.376;9.708;2022-09-01T15:55:45;22.30;94.80
28438;DHT22;15667;52.376;9.708;2022-09-01T15:58:14;22.20;94.80
28438;DHT22;15667;52.376;9.708;2022-09-01T16:00:41;22.20;94.60
28438;DHT22;15667;52.376;9.708;2022-09-01T16:03:07;22.20;94.80
28438;DHT22;15667;52.376;9.708;2022-09-01T16:08:59;22.10;94.90
28438;DHT22;15667;52.376;9.708;2022-09-01T16:15:14;22.00;95.40
28438;DHT22;15667;52.376;9.708;2022-09-01T16:21:07;22.00;94.90
28438;DHT22;15667;52.376;9.708;2022-09-01T16:30:32;21.80;95.20
28438;DHT22;15667;52.376;9.708;2022-09-01T17:42:45;21.00;96.40
28438;DHT22;15667;52.376;9.708;2022-09-01T17:45:25;21.00;96.70
28438;DHT22;15667;52.376;9.708;2022-09-01T17:48:19;20.90;97.00
28438;DHT22;15667;52.376;9.708;2022-09-01T17:51:07;20.80;97.20
28438;DHT22;15667;52.376;9.708;2022-09-01T17:59:36;20.70;97.90
28438;DHT22;15667;52.376;9.708;2022-09-01T18:04:41;20.60;98.10
28438;DHT22;15667;52.376;9.708;2022-09-01T18:10:07;20.40;98.50
28438;DHT22;15667;52.376;9.708;2022-09-01T18:12:39;20.50;98.90
28438;DHT22;15667;52.376;9.708;2022-09-01T18:15:20;20.40;98.90
28438;DHT22;15667;52.376;9.708;2022-09-01T18:17:51;20.40;99.10
28438;DHT22;15667;52.376;9.708;2022-09-01T18:20:41;20.30;99.10
28438;DHT22;15667;52.376;9.708;2022-09-01T18:23:15;20.30;99.40
28438;DHT22;15667;52.376;9.708;2022-09-01T18:25:51;20.30;99.30
28438;DHT22;15667;52.376;9.708;2022-09-01T18:28:19;20.20;99.60
28438;DHT22;15667;52.376;9.708;2022-09-01T18:30:59;20.10;99.70
28438;DHT22;15667;52.376;9.708;2022-09-01T18:33:28;20.10;99.90
28438;DHT22;15667;52.376;9.708;2022-09-01T18:39:17;20.00;99.90
28438;DHT22;15667;52.376;9.708;2022-09-01T18:42:23;20.10;99.90
28438;DHT22;15667;52.376;9.708;2022-09-01T18:59:01;19.70;99.90
28438;DHT22;15667;52.376;9.708;2022-09-01T19:04:30;19.60;99.90
28438;DHT22;15667;52.376;9.708;2022-09-01T19:07:34;19.50;99.90
28438;DHT22;15667;52.376;9.708;2022-09-01T19:10:15;19.50;99.90
28438;DHT22;15667;52.376;9.708;2022-09-01T21:10:32;17.90;99.90
28438;DHT22;15667;52.376;9.708;2022-09-01T21:16:02;17.90;99.90
28438;DHT22;15667;52.376;9.708;2022-09-01T21:24:15;17.70;99.90
28438;DHT22;15667;52.376;9.708;2022-09-01T21:26:41;17.70;99.90
28438;DHT22;15667;52.376;9.708;2022-09-01T21:29:23;17.60;99.90
28438;DHT22;15667;52.376;9.708;2022-09-01T21:32:11;17.70;99.90
28438;DHT22;15667;52.376;9.708;2022-09-01T21:34:42;17.70;99.90
28438;DHT22;15667;52.376;9.708;2022-09-01T21:37:11;17.70;99.90
28438;DHT22;15667;52.376;9.708;2022-09-01T21:39:37;17.60;99.90
28438;DHT22;15667;52.376;9.708;2022-09-01T21:42:06;17.50;99.90
28438;DHT22;15667;52.376;9.708;2022-09-01T21:44:33;17.50;99.90
28438;DHT22;15667;52.376;9.708;2022-09-01T21:46:59;17.50;99.90
28438;DHT22;15667;52.376;9.708;2022-09-01T21:49:25;17.50;99.90
28438;DHT22;15667;52.376;9.708;2022-09-01T21:51:51;17.50;99.90
28438;DHT22;15667;52.376;9.708;2022-09-01T21:54:18;17.40;99.90
28438;DHT22;15667;52.376;9.708;2022-09-01T21:56:44;17.40;99.90
28438;DHT22;15667;52.376;9.708;2022-09-01T21:59:10;17.40;99.90
28438;DHT22;15667;52.376;9.708;2022-09-01T22:01:38;17.40;99.90
28438;DHT22;15667;52.376;9.708;2022-09-01T22:04:04;17.40;99.90
28438;DHT22;15667;52.376;9.708;2022-09-01T22:06:30;17.30;99.90
28438;DHT22;15667;52.376;9.708;2022-09-01T22:08:58;17.20;99.90
28438;DHT22;15667;52.376;9.708;2022-09-01T22:11:26;17.20;99.90
28438;DHT22;15667;52.376;9.708;2022-09-01T22:13:55;17.30;99.90
28438;DHT22;15667;52.376;9.708;2022-09-01T22:16:22;17.20;99.90
28438;DHT22;15667;52.376;9.708;2022-09-01T22:18:47;17.10;99.90
28438;DHT22;15667;52.376;9.708;2022-09-01T22:21:14;17.10;99.90
28438;DHT22;15667;52.376;9.708;2022-09-01T22:23:41;17.00;99.90
28438;DHT22;15667;52.376;9.708;2022-09-01T22:26:08;17.10;99.90
28438;DHT22;15667;52.376;9.708;2022-09-01T22:28:34;17.00;99.90
28438;DHT22;15667;52.376;9.708;2022-09-01T22:31:01;17.10;99.90
28438;DHT22;15667;52.376;9.708;2022-09-01T22:33:27;16.90;99.90
28438;DHT22;15667;52.376;9.708;2022-09-01T22:35:54;16.90;99.90
28438;DHT22;15667;52.376;9.708;2022-09-01T22:38:21;16.90;99.90
28438;DHT22;15667;52.376;9.708;2022-09-01T22:40:54;16.80;99.90
28438;DHT22;15667;52.376;9.708;2022-09-01T22:43:22;16.80;99.90
28438;DHT22;15667;52.376;9.708;2022-09-01T22:45:50;16.70;99.90
28438;DHT22;15667;52.376;9.708;2022-09-01T22:48:17;16.80;99.90
28438;DHT22;15667;52.376;9.708;2022-09-01T22:50:46;16.70;99.90
28438;DHT22;15667;52.376;9.708;2022-09-01T22:53:14;16.70;99.90
28438;DHT22;15667;52.376;9.708;2022-09-01T22:55:42;16.80;99.90
28438;DHT22;15667;52.376;9.708;2022-09-01T22:58:09;16.70;99.90
28438;DHT22;15667;52.376;9.708;2022-09-01T23:00:35;16.70;99.90
28438;DHT22;15667;52.376;9.708;2022-09-01T23:03:02;16.60;99.90
28438;DHT22;15667;52.376;9.708;2022-09-01T23:05:29;16.60;99.90
28438;DHT22;15667;52.376;9.708;2022-09-01T23:07:56;16.60;99.90
28438;DHT22;15667;52.376;9.708;2022-09-01T23:10:23;16.50;99.90
28438;DHT22;15667;52.376;9.708;2022-09-01T23:12:49;16.50;99.90
28438;DHT22;15667;52.376;9.708;2022-09-01T23:15:15;16.50;99.90
28438;DHT22;15667;52.376;9.708;2022-09-01T23:17:41;16.50;99.90
28438;DHT22;15667;52.376;9.708;2022-09-01T23:20:09;16.40;99.90
28438;DHT22;15667;52.376;9.708;2022-09-01T23:22:39;16.40;99.90
28438;DHT22;15667;52.376;9.708;2022-09-01T23:25:05;16.50;99.90
28438;DHT22;15667;52.376;9.708;2022-09-01T23:27:31;16.50;99.90
28438;DHT22;15667;52.376;9.708;2022-09-01T23:29:57;16.40;99.90
28438;DHT22;15667;52.376;9.708;2022-09-01T23:32:23;16.30;99.90
28438;DHT22;15667;52.376;9.708;2022-09-01T23:34:49;16.40;99.90
28438;DHT22;15667;52.376;9.708;2022-09-01T23:37:15;16.30;99.90
28438;DHT22;15667;52.376;9.708;2022-09-01T23:39:41;16.40;99.90
28438;DHT22;15667;52.376;9.708;2022-09-01T23:42:06;16.40;99.90
28438;DHT22;15667;52.376;9.708;2022-09-01T23:44:32;16.20;99.90
28438;DHT22;15667;52.376;9.708;2022-09-01T23:46:58;16.20;99.90
28438;DHT22;15667;52.376;9.708;2022-09-01T23:49:24;16.10;99.90
28438;DHT22;15667;52.376;9.708;2022-09-01T23:51:52;16.20;99.90
28438;DHT22;15667;52.376;9.708;2022-09-01T23:54:18;16.20;99.90
28438;DHT22;15667;52.376;9.708;2022-09-01T23:56:44;16.20;99.90
28438;DHT22;15667;52.376;9.708;2022-09-01T23:59:10;16.20;99.90
